sensor_id;sensor_type;location;lat;lon;timestamp;pressure;altitude;pressure_sealevel;temperature;humidity
21361;BME280;10839;43.206;23.550;2023-03-01T00:02:06;98002.53;;;5.54;100.00
21361;BME280;10839;43.206;23.550;2023-03-01T00:04:32;97992.72;;;5.55;100.00
21361;BME280;10839;43.206;23.550;2023-03-01T00:06:58;97996.63;;;5.51;100.00
21361;BME280;10839;43.206;23.550;2023-03-01T00:09:23;98000.31;;;5.50;100.00
21361;BME280;10839;43.206;23.550;2023-03-01T00:11:49;97993.25;;;5.68;100.00
21361;BME280;10839;43.206;23.550;2023-03-01T00:14:15;97991.00;;;5.63;100.00
21361;BME280;10839;43.206;23.550;2023-03-01T00:16:44;97987.13;;;5.39;100.00
21361;BME280;10839;43.206;23.550;2023-03-01T00:19:16;97978.94;;;5.50;100.00
21361;BME280;10839;43.206;23.550;2023-03-01T00:21:43;97975.03;;;5.54;100.00
21361;BME280;10839;43.206;23.550;2023-03-01T00:24:09;97966.59;;;5.39;100.00
21361;BME280;10839;43.206;23.550;2023-03-01T00:26:36;97959.81;;;5.64;100.00
21361;BME280;10839;43.206;23.550;2023-03-01T00:29:02;97975.28;;;5.51;100.00
21361;BME280;10839;43.206;23.550;2023-03-01T00:31:30;97978.13;;;5.40;100.00
21361;BME280;10839;43.206;23.550;2023-03-01T00:33:59;97963.22;;;5.47;100.00
21361;BME280;10839;43.206;23.550;2023-03-01T00:36:28;97976.69;;;5.55;100.00
21361;BME280;10839;43.206;23.550;2023-03-01T00:38:54;97966.34;;;5.42;100.00
21361;BME280;10839;43.206;23.550;2023-03-01T00:41:21;97974.25;;;5.71;100.00
21361;BME280;10839;43.206;23.550;2023-03-01T00:43:49;97971.06;;;5.67;100.00
21361;BME280;10839;43.206;23.550;2023-03-01T00:46:17;97964.09;;;5.47;100.00
21361;BME280;10839;43.206;23.550;2023-03-01T00:48:44;97965.44;;;5.61;100.00
21361;BME280;10839;43.206;23.550;2023-03-01T00:51:12;97964.88;;;5.67;100.00
21361;BME280;10839;43.206;23.550;2023-03-01T00:53:40;97948.59;;;5.60;100.00
21361;BME280;10839;43.206;23.550;2023-03-01T00:56:07;97959.00;;;5.54;100.00
21361;BME280;10839;43.206;23.550;2023-03-01T00:58:34;97960.59;;;5.93;100.00
21361;BME280;10839;43.206;23.550;2023-03-01T01:01:00;97966.84;;;5.65;100.00
21361;BME280;10839;43.206;23.550;2023-03-01T01:03:26;97953.63;;;5.63;100.00
21361;BME280;10839;43.206;23.550;2023-03-01T01:05:53;97941.56;;;5.69;100.00
21361;BME280;10839;43.206;23.550;2023-03-01T01:08:19;97940.16;;;5.65;100.00
21361;BME280;10839;43.206;23.550;2023-03-01T01:10:46;97944.38;;;5.58;100.00
21361;BME280;10839;43.206;23.550;2023-03-01T01:13:13;97943.91;;;5.72;100.00
21361;BME280;10839;43.206;23.550;2023-03-01T01:15:39;97944.06;;;5.70;100.00
21361;BME280;10839;43.206;23.550;2023-03-01T01:18:04;97951.16;;;5.52;100.00
21361;BME280;10839;43.206;23.550;2023-03-01T01:20:31;97949.97;;;5.74;100.00
21361;BME280;10839;43.206;23.550;2023-03-01T01:22:58;97956.56;;;5.70;100.00
21361;BME280;10839;43.206;23.550;2023-03-01T01:25:24;97951.16;;;5.52;100.00
21361;BME280;10839;43.206;23.550;2023-03-01T01:27:53;97949.56;;;5.59;100.00
21361;BME280;10839;43.206;23.550;2023-03-01T01:30:19;97952.25;;;5.50;100.00
21361;BME280;10839;43.206;23.550;2023-03-01T01:32:45;97938.56;;;5.26;100.00
21361;BME280;10839;43.206;23.550;2023-03-01T01:35:10;97938.50;;;5.45;100.00
21361;BME280;10839;43.206;23.550;2023-03-01T01:37:36;97944.66;;;5.55;100.00
21361;BME280;10839;43.206;23.550;2023-03-01T01:40:02;97943.25;;;5.51;100.00
21361;BME280;10839;43.206;23.550;2023-03-01T01:42:31;97941.00;;;5.56;100.00
21361;BME280;10839;43.206;23.550;2023-03-01T01:47:50;97935.13;;;5.52;100.00
21361;BME280;10839;43.206;23.550;2023-03-01T01:50:17;97939.31;;;5.55;100.00
21361;BME280;10839;43.206;23.550;2023-03-01T01:52:44;97929.75;;;5.62;100.00
21361;BME280;10839;43.206;23.550;2023-03-01T01:55:17;97939.31;;;5.55;100.00
21361;BME280;10839;43.206;23.550;2023-03-01T01:57:49;97932.31;;;5.54;100.00
21361;BME280;10839;43.206;23.550;2023-03-01T02:00:21;97936.72;;;5.82;100.00
21361;BME280;10839;43.206;23.550;2023-03-01T02:02:51;97943.00;;;5.54;100.00
21361;BME280;10839;43.206;23.550;2023-03-01T02:08:18;97951.69;;;5.56;100.00
21361;BME280;10839;43.206;23.550;2023-03-01T02:10:45;97944.25;;;5.50;100.00
21361;BME280;10839;43.206;23.550;2023-03-01T02:13:12;97950.00;;;5.55;100.00
21361;BME280;10839;43.206;23.550;2023-03-01T02:15:40;97944.22;;;5.69;100.00
21361;BME280;10839;43.206;23.550;2023-03-01T02:18:08;97944.66;;;5.55;100.00
21361;BME280;10839;43.206;23.550;2023-03-01T02:20:51;97930.88;;;5.59;100.00
21361;BME280;10839;43.206;23.550;2023-03-01T02:23:22;97931.94;;;5.76;100.00
21361;BME280;10839;43.206;23.550;2023-03-01T02:26:21;97942.16;;;5.53;100.00
21361;BME280;10839;43.206;23.550;2023-03-01T02:28:51;97933.00;;;5.56;100.00
21361;BME280;10839;43.206;23.550;2023-03-01T02:31:19;97939.03;;;5.58;100.00
21361;BME280;10839;43.206;23.550;2023-03-01T02:34:04;97928.41;;;5.39;100.00
21361;BME280;10839;43.206;23.550;2023-03-01T02:36:44;97941.00;;;5.56;100.00
21361;BME280;10839;43.206;23.550;2023-03-01T02:39:17;97932.16;;;5.55;100.00
21361;BME280;10839;43.206;23.550;2023-03-01T02:41:51;97943.03;;;5.35;100.00
21361;BME280;10839;43.206;23.550;2023-03-01T02:44:17;97930.34;;;5.46;100.00
21361;BME280;10839;43.206;23.550;2023-03-01T02:46:49;97939.78;;;5.50;100.00
21361;BME280;10839;43.206;23.550;2023-03-01T02:49:25;97925.03;;;5.37;100.00
21361;BME280;10839;43.206;23.550;2023-03-01T02:52:01;97937.38;;;5.57;100.00
21361;BME280;10839;43.206;23.550;2023-03-01T02:57:15;97932.59;;;5.51;100.00
21361;BME280;10839;43.206;23.550;2023-03-01T02:59:42;97934.41;;;5.60;100.00
21361;BME280;10839;43.206;23.550;2023-03-01T03:02:22;97931.78;;;5.41;100.00
21361;BME280;10839;43.206;23.550;2023-03-01T03:05:22;97928.31;;;5.31;100.00
21361;BME280;10839;43.206;23.550;2023-03-01T03:07:51;97939.78;;;5.50;100.00
21361;BME280;10839;43.206;23.550;2023-03-01T03:10:24;97939.31;;;5.55;100.00
21361;BME280;10839;43.206;23.550;2023-03-01T03:12:52;97934.84;;;5.46;100.00
21361;BME280;10839;43.206;23.550;2023-03-01T03:15:18;97938.75;;;5.61;100.00
21361;BME280;10839;43.206;23.550;2023-03-01T03:17:46;97925.13;;;5.54;100.00
21361;BME280;10839;43.206;23.550;2023-03-01T03:20:14;97936.84;;;5.44;100.00
21361;BME280;10839;43.206;23.550;2023-03-01T03:22:46;97933.94;;;5.74;100.00
21361;BME280;10839;43.206;23.550;2023-03-01T03:25:12;97931.44;;;5.63;100.00
21361;BME280;10839;43.206;23.550;2023-03-01T03:27:42;97934.53;;;5.58;100.00
21361;BME280;10839;43.206;23.550;2023-03-01T03:30:12;97923.38;;;5.72;100.00
21361;BME280;10839;43.206;23.550;2023-03-01T03:32:40;97930.88;;;5.59;100.00
21361;BME280;10839;43.206;23.550;2023-03-01T03:35:09;97927.13;;;5.43;100.00
21361;BME280;10839;43.206;23.550;2023-03-01T03:37:39;97925.28;;;5.53;100.00
21361;BME280;10839;43.206;23.550;2023-03-01T03:40:24;97928.94;;;5.52;100.00
21361;BME280;10839;43.206;23.550;2023-03-01T03:42:50;97930.09;;;5.40;100.00
21361;BME280;10839;43.206;23.550;2023-03-01T03:45:17;97933.69;;;5.58;100.00
21361;BME280;10839;43.206;23.550;2023-03-01T03:47:43;97940.47;;;5.52;100.00
21361;BME280;10839;43.206;23.550;2023-03-01T03:50:12;97924.47;;;5.43;100.00
21361;BME280;10839;43.206;23.550;2023-03-01T03:52:38;97928.34;;;5.58;100.00
21361;BME280;10839;43.206;23.550;2023-03-01T03:55:05;97925.28;;;5.53;100.00
21361;BME280;10839;43.206;23.550;2023-03-01T03:57:39;97931.50;;;5.34;100.00
21361;BME280;10839;43.206;23.550;2023-03-01T04:00:07;97929.78;;;5.52;100.00
21361;BME280;10839;43.206;23.550;2023-03-01T04:02:41;97936.97;;;5.42;100.00
21361;BME280;10839;43.206;23.550;2023-03-01T04:05:10;97934.03;;;5.36;100.00
21361;BME280;10839;43.206;23.550;2023-03-01T04:07:37;97936.78;;;5.63;100.00
21361;BME280;10839;43.206;23.550;2023-03-01T04:10:04;97940.72;;;5.59;100.00
21361;BME280;10839;43.206;23.550;2023-03-01T04:12:33;97934.72;;;5.38;100.00
21361;BME280;10839;43.206;23.550;2023-03-01T04:15:03;97925.84;;;5.56;100.00
21361;BME280;10839;43.206;23.550;2023-03-01T04:17:44;97925.56;;;5.50;100.00
21361;BME280;10839;43.206;23.550;2023-03-01T04:20:15;97925.88;;;5.28;100.00
21361;BME280;10839;43.206;23.550;2023-03-01T04:22:43;97920.19;;;5.59;100.00
21361;BME280;10839;43.206;23.550;2023-03-01T04:25:13;97921.94;;;5.41;100.00
21361;BME280;10839;43.206;23.550;2023-03-01T04:27:40;97915.50;;;5.34;100.00
21361;BME280;10839;43.206;23.550;2023-03-01T04:30:07;97911.00;;;5.35;100.00
21361;BME280;10839;43.206;23.550;2023-03-01T04:32:33;97920.22;;;5.50;100.00
21361;BME280;10839;43.206;23.550;2023-03-01T04:34:59;97910.19;;;5.24;100.00
21361;BME280;10839;43.206;23.550;2023-03-01T04:37:26;97912.22;;;5.50;100.00
21361;BME280;10839;43.206;23.550;2023-03-01T04:39:52;97914.03;;;5.59;100.00
21361;BME280;10839;43.206;23.550;2023-03-01T04:42:19;97908.44;;;5.43;100.00
21361;BME280;10839;43.206;23.550;2023-03-01T04:44:45;97910.16;;;5.34;100.00
21361;BME280;10839;43.206;23.550;2023-03-01T04:47:11;97908.16;;;5.46;100.00
21361;BME280;10839;43.206;23.550;2023-03-01T04:49:37;97903.41;;;5.40;100.00
21361;BME280;10839;43.206;23.550;2023-03-01T04:52:04;97916.22;;;5.27;100.00
21361;BME280;10839;43.206;23.550;2023-03-01T04:54:32;97920.56;;;5.37;100.00
21361;BME280;10839;43.206;23.550;2023-03-01T04:56:59;97909.63;;;5.31;100.00
21361;BME280;10839;43.206;23.550;2023-03-01T04:59:25;97914.66;;;5.24;100.00
21361;BME280;10839;43.206;23.550;2023-03-01T05:01:52;97905.09;;;5.41;100.00
21361;BME280;10839;43.206;23.550;2023-03-01T05:04:22;97915.22;;;5.37;100.00
21361;BME280;10839;43.206;23.550;2023-03-01T05:06:48;97915.22;;;5.28;100.00
21361;BME280;10839;43.206;23.550;2023-03-01T05:09:14;97903.41;;;5.40;100.00
21361;BME280;10839;43.206;23.550;2023-03-01T05:11:40;97920.13;;;5.42;100.00
21361;BME280;10839;43.206;23.550;2023-03-01T05:14:07;97921.56;;;5.27;100.00
21361;BME280;10839;43.206;23.550;2023-03-01T05:16:35;97915.38;;;5.36;100.00
21361;BME280;10839;43.206;23.550;2023-03-01T05:19:02;97911.59;;;5.29;100.00
21361;BME280;10839;43.206;23.550;2023-03-01T05:21:38;97902.91;;;5.07;100.00
21361;BME280;10839;43.206;23.550;2023-03-01T05:24:27;97903.69;;;5.37;100.00
21361;BME280;10839;43.206;23.550;2023-03-01T05:26:52;97900.03;;;5.38;100.00
21361;BME280;10839;43.206;23.550;2023-03-01T05:29:19;97897.25;;;5.30;100.00
21361;BME280;10839;43.206;23.550;2023-03-01T05:31:55;97898.47;;;5.45;100.00
21361;BME280;10839;43.206;23.550;2023-03-01T05:34:25;97902.59;;;5.30;100.00
21361;BME280;10839;43.206;23.550;2023-03-01T05:36:52;97903.00;;;5.35;100.00
21361;BME280;10839;43.206;23.550;2023-03-01T05:39:23;97908.75;;;5.40;100.00
21361;BME280;10839;43.206;23.550;2023-03-01T05:41:55;97912.13;;;5.42;100.00
21361;BME280;10839;43.206;23.550;2023-03-01T05:44:22;97915.78;;;5.31;100.00
21361;BME280;10839;43.206;23.550;2023-03-01T05:46:48;97916.31;;;5.44;100.00
21361;BME280;10839;43.206;23.550;2023-03-01T05:49:15;97904.41;;;5.39;100.00
21361;BME280;10839;43.206;23.550;2023-03-01T05:51:41;97918.59;;;5.30;100.00
21361;BME280;10839;43.206;23.550;2023-03-01T05:54:08;97915.50;;;5.44;100.00
21361;BME280;10839;43.206;23.550;2023-03-01T05:56:36;97922.75;;;5.51;100.00
21361;BME280;10839;43.206;23.550;2023-03-01T05:59:03;97919.72;;;5.37;100.00
21361;BME280;10839;43.206;23.550;2023-03-01T06:01:33;97919.69;;;5.46;100.00
21361;BME280;10839;43.206;23.550;2023-03-01T06:04:00;97922.78;;;5.42;100.00
21361;BME280;10839;43.206;23.550;2023-03-01T06:06:26;97924.19;;;5.36;100.00
21361;BME280;10839;43.206;23.550;2023-03-01T06:08:52;97926.47;;;5.41;100.00
21361;BME280;10839;43.206;23.550;2023-03-01T06:11:19;97931.13;;;5.66;100.00
21361;BME280;10839;43.206;23.550;2023-03-01T06:13:45;97931.22;;;5.47;100.00
21361;BME280;10839;43.206;23.550;2023-03-01T06:16:12;97929.25;;;5.49;100.00
21361;BME280;10839;43.206;23.550;2023-03-01T06:18:39;97937.91;;;5.51;100.00
21361;BME280;10839;43.206;23.550;2023-03-01T06:21:06;97937.69;;;5.35;100.00
21361;BME280;10839;43.206;23.550;2023-03-01T06:23:32;97934.09;;;5.63;100.00
21361;BME280;10839;43.206;23.550;2023-03-01T06:25:59;97933.94;;;5.74;100.00
21361;BME280;10839;43.206;23.550;2023-03-01T06:28:25;97934.81;;;5.65;100.00
21361;BME280;10839;43.206;23.550;2023-03-01T06:30:51;97934.03;;;5.36;100.00
21361;BME280;10839;43.206;23.550;2023-03-01T06:33:17;97929.22;;;5.58;100.00
21361;BME280;10839;43.206;23.550;2023-03-01T06:35:46;97929.50;;;5.55;100.00
21361;BME280;10839;43.206;23.550;2023-03-01T06:38:12;97927.56;;;5.38;100.00
21361;BME280;10839;43.206;23.550;2023-03-01T06:40:40;97935.44;;;5.40;100.00
21361;BME280;10839;43.206;23.550;2023-03-01T06:43:07;97916.59;;;5.41;100.00
21361;BME280;10839;43.206;23.550;2023-03-01T06:45:33;97937.09;;;5.50;100.00
21361;BME280;10839;43.206;23.550;2023-03-01T06:48:04;97935.94;;;5.62;100.00
21361;BME280;10839;43.206;23.550;2023-03-01T06:50:31;97932.88;;;5.48;100.00
21361;BME280;10839;43.206;23.550;2023-03-01T06:52:57;97935.13;;;5.43;100.00
21361;BME280;10839;43.206;23.550;2023-03-01T06:55:24;97938.75;;;5.61;100.00
21361;BME280;10839;43.206;23.550;2023-03-01T06:58:00;97933.38;;;5.70;100.00
21361;BME280;10839;43.206;23.550;2023-03-01T07:00:27;97940.69;;;5.68;100.00
21361;BME280;10839;43.206;23.550;2023-03-01T07:02:54;97940.44;;;5.62;100.00
21361;BME280;10839;43.206;23.550;2023-03-01T07:05:20;97929.56;;;5.73;100.00
21361;BME280;10839;43.206;23.550;2023-03-01T07:07:46;97937.88;;;5.70;100.00
21361;BME280;10839;43.206;23.550;2023-03-01T07:10:12;97936.91;;;5.61;100.00
21361;BME280;10839;43.206;23.550;2023-03-01T07:12:38;97931.81;;;5.87;100.00
21361;BME280;10839;43.206;23.550;2023-03-01T07:15:04;97930.13;;;5.86;100.00
21361;BME280;10839;43.206;23.550;2023-03-01T07:17:30;97928.34;;;5.67;100.00
21361;BME280;10839;43.206;23.550;2023-03-01T07:19:57;97931.31;;;6.01;100.00
21361;BME280;10839;43.206;23.550;2023-03-01T07:22:23;97931.91;;;5.95;100.00
21361;BME280;10839;43.206;23.550;2023-03-01T07:24:48;97933.94;;;5.83;100.00
21361;BME280;10839;43.206;23.550;2023-03-01T07:27:15;97927.69;;;6.02;100.00
21361;BME280;10839;43.206;23.550;2023-03-01T07:29:41;97915.59;;;5.98;100.00
21361;BME280;10839;43.206;23.550;2023-03-01T07:32:07;97921.28;;;5.85;100.00
21361;BME280;10839;43.206;23.550;2023-03-01T07:34:33;97926.53;;;6.04;100.00
21361;BME280;10839;43.206;23.550;2023-03-01T07:36:59;97917.50;;;6.15;100.00
21361;BME280;10839;43.206;23.550;2023-03-01T07:39:24;97912.63;;;6.01;100.00
21361;BME280;10839;43.206;23.550;2023-03-01T07:41:51;97916.88;;;6.21;100.00
21361;BME280;10839;43.206;23.550;2023-03-01T07:44:21;97921.81;;;6.25;100.00
21361;BME280;10839;43.206;23.550;2023-03-01T07:46:47;97921.44;;;6.11;100.00
21361;BME280;10839;43.206;23.550;2023-03-01T07:49:13;97930.16;;;6.13;100.00
21361;BME280;10839;43.206;23.550;2023-03-01T07:51:38;97925.78;;;6.39;100.00
21361;BME280;10839;43.206;23.550;2023-03-01T07:54:04;97921.13;;;6.14;100.00
21361;BME280;10839;43.206;23.550;2023-03-01T07:56:30;97924.66;;;6.14;100.00
21361;BME280;10839;43.206;23.550;2023-03-01T07:58:59;97916.53;;;6.33;100.00
21361;BME280;10839;43.206;23.550;2023-03-01T08:01:25;97917.97;;;6.28;100.00
21361;BME280;10839;43.206;23.550;2023-03-01T08:03:51;97927.56;;;6.21;100.00
21361;BME280;10839;43.206;23.550;2023-03-01T08:06:17;97924.19;;;6.19;100.00
21361;BME280;10839;43.206;23.550;2023-03-01T08:08:44;97925.59;;;6.23;100.00
21361;BME280;10839;43.206;23.550;2023-03-01T08:11:11;97929.84;;;6.16;100.00
21361;BME280;10839;43.206;23.550;2023-03-01T08:13:38;97927.78;;;6.37;100.00
21361;BME280;10839;43.206;23.550;2023-03-01T08:16:10;97920.16;;;6.15;100.00
21361;BME280;10839;43.206;23.550;2023-03-01T08:18:36;97925.31;;;5.99;100.00
21361;BME280;10839;43.206;23.550;2023-03-01T08:21:10;97914.44;;;6.55;100.00
21361;BME280;10839;43.206;23.550;2023-03-01T08:23:37;97914.31;;;6.02;100.00
21361;BME280;10839;43.206;23.550;2023-03-01T08:26:06;97911.34;;;5.68;100.00
21361;BME280;10839;43.206;23.550;2023-03-01T08:28:32;97918.38;;;6.06;100.00
21361;BME280;10839;43.206;23.550;2023-03-01T08:30:58;97921.44;;;6.11;100.00
21361;BME280;10839;43.206;23.550;2023-03-01T08:33:24;97921.81;;;5.79;100.00
21361;BME280;10839;43.206;23.550;2023-03-01T08:35:50;97927.84;;;5.45;100.00
21361;BME280;10839;43.206;23.550;2023-03-01T08:38:16;97926.19;;;5.90;100.00
21361;BME280;10839;43.206;23.550;2023-03-01T08:40:43;97919.59;;;5.75;100.00
21361;BME280;10839;43.206;23.550;2023-03-01T08:43:09;97920.28;;;5.31;100.00
21361;BME280;10839;43.206;23.550;2023-03-01T08:45:34;97918.72;;;5.38;100.00
21361;BME280;10839;43.206;23.550;2023-03-01T08:48:01;97917.94;;;5.74;100.00
21361;BME280;10839;43.206;23.550;2023-03-01T08:50:26;97923.56;;;5.61;100.00
21361;BME280;10839;43.206;23.550;2023-03-01T08:52:52;97921.97;;;5.32;100.00
21361;BME280;10839;43.206;23.550;2023-03-01T08:55:18;97916.78;;;5.76;100.00
21361;BME280;10839;43.206;23.550;2023-03-01T08:57:44;97927.47;;;5.76;100.00
21361;BME280;10839;43.206;23.550;2023-03-01T09:00:12;97923.59;;;5.52;100.00
21361;BME280;10839;43.206;23.550;2023-03-01T09:02:40;97926.72;;;5.93;100.00
21361;BME280;10839;43.206;23.550;2023-03-01T09:05:06;97930.56;;;5.72;100.00
21361;BME280;10839;43.206;23.550;2023-03-01T09:07:32;97930.22;;;5.48;100.00
21361;BME280;10839;43.206;23.550;2023-03-01T09:09:57;97921.41;;;5.74;100.00
21361;BME280;10839;43.206;23.550;2023-03-01T09:12:23;97933.34;;;5.80;100.00
21361;BME280;10839;43.206;23.550;2023-03-01T09:14:50;97933.09;;;5.73;100.00
21361;BME280;10839;43.206;23.550;2023-03-01T09:17:16;97937.47;;;5.84;100.00
21361;BME280;10839;43.206;23.550;2023-03-01T09:19:42;97924.09;;;5.84;100.00
21361;BME280;10839;43.206;23.550;2023-03-01T09:22:08;97930.06;;;5.59;100.00
21361;BME280;10839;43.206;23.550;2023-03-01T09:24:34;97916.53;;;5.70;100.00
21361;BME280;10839;43.206;23.550;2023-03-01T09:26:59;97930.81;;;5.88;100.00
21361;BME280;10839;43.206;23.550;2023-03-01T09:29:26;97933.13;;;5.64;100.00
21361;BME280;10839;43.206;23.550;2023-03-01T09:31:52;97927.19;;;5.89;100.00
21361;BME280;10839;43.206;23.550;2023-03-01T09:34:21;97923.22;;;5.93;100.00
21361;BME280;10839;43.206;23.550;2023-03-01T09:36:49;97924.34;;;5.81;100.00
21361;BME280;10839;43.206;23.550;2023-03-01T09:39:16;97927.13;;;5.98;100.00
21361;BME280;10839;43.206;23.550;2023-03-01T09:44:21;97929.84;;;5.89;100.00
21361;BME280;10839;43.206;23.550;2023-03-01T09:46:51;97921.47;;;6.01;100.00
21361;BME280;10839;43.206;23.550;2023-03-01T09:49:26;97932.53;;;5.89;100.00
21361;BME280;10839;43.206;23.550;2023-03-01T09:52:17;97928.66;;;6.01;100.00
21361;BME280;10839;43.206;23.550;2023-03-01T09:54:48;97927.16;;;6.16;100.00
21361;BME280;10839;43.206;23.550;2023-03-01T10:02:52;97921.44;;;6.11;100.00
21361;BME280;10839;43.206;23.550;2023-03-01T10:10:57;97916.38;;;6.08;100.00
21361;BME280;10839;43.206;23.550;2023-03-01T10:13:37;97919.84;;;5.91;100.00
21361;BME280;10839;43.206;23.550;2023-03-01T10:16:16;97915.22;;;6.20;100.00
21361;BME280;10839;43.206;23.550;2023-03-01T10:18:46;97907.38;;;6.09;100.00
21361;BME280;10839;43.206;23.550;2023-03-01T10:21:18;97914.13;;;6.13;100.00
21361;BME280;10839;43.206;23.550;2023-03-01T10:23:45;97913.41;;;6.38;100.00
21361;BME280;10839;43.206;23.550;2023-03-01T10:26:23;97909.66;;;6.04;100.00
21361;BME280;10839;43.206;23.550;2023-03-01T10:28:58;97904.91;;;6.25;100.00
21361;BME280;10839;43.206;23.550;2023-03-01T10:31:37;97895.91;;;6.26;100.00
21361;BME280;10839;43.206;23.550;2023-03-01T10:34:15;97897.94;;;6.14;100.00
21361;BME280;10839;43.206;23.550;2023-03-01T10:36:44;97890.84;;;6.50;100.00
21361;BME280;10839;43.206;23.550;2023-03-01T10:39:18;97893.41;;;6.42;100.00
21361;BME280;10839;43.206;23.550;2023-03-01T10:42:02;97891.88;;;6.22;100.00
21361;BME280;10839;43.206;23.550;2023-03-01T10:47:02;97889.13;;;6.04;100.00
21361;BME280;10839;43.206;23.550;2023-03-01T10:49:27;97892.13;;;6.19;100.00
21361;BME280;10839;43.206;23.550;2023-03-01T10:51:53;97893.69;;;6.39;100.00
21361;BME280;10839;43.206;23.550;2023-03-01T10:54:32;97880.38;;;6.12;100.00
21361;BME280;10839;43.206;23.550;2023-03-01T10:57:03;97879.72;;;6.27;100.00
21361;BME280;10839;43.206;23.550;2023-03-01T10:59:34;97882.84;;;6.23;100.00
21361;BME280;10839;43.206;23.550;2023-03-01T11:04:35;97874.03;;;6.40;100.00
21361;BME280;10839;43.206;23.550;2023-03-01T11:07:02;97870.47;;;6.22;100.00
21361;BME280;10839;43.206;23.550;2023-03-01T11:09:33;97858.53;;;5.99;100.00
21361;BME280;10839;43.206;23.550;2023-03-01T11:12:05;97858.53;;;6.43;100.00
21361;BME280;10839;43.206;23.550;2023-03-01T11:14:38;97863.63;;;6.37;100.00
21361;BME280;10839;43.206;23.550;2023-03-01T11:17:21;97852.16;;;6.27;100.00
21361;BME280;10839;43.206;23.550;2023-03-01T11:22:59;97849.38;;;6.19;100.00
21361;BME280;10839;43.206;23.550;2023-03-01T11:25:29;97847.31;;;6.13;100.00
21361;BME280;10839;43.206;23.550;2023-03-01T11:27:59;97850.13;;;6.38;100.00
21361;BME280;10839;43.206;23.550;2023-03-01T11:30:51;97844.88;;;6.19;100.00
21361;BME280;10839;43.206;23.550;2023-03-01T11:33:47;97832.69;;;6.34;100.00
21361;BME280;10839;43.206;23.550;2023-03-01T11:38:49;97838.69;;;6.19;100.00
21361;BME280;10839;43.206;23.550;2023-03-01T11:41:17;97834.84;;;6.48;100.00
21361;BME280;10839;43.206;23.550;2023-03-01T11:44:01;97823.63;;;6.45;100.00
21361;BME280;10839;43.206;23.550;2023-03-01T11:46:41;97828.50;;;6.32;100.00
21361;BME280;10839;43.206;23.550;2023-03-01T12:16:38;97814.66;;;6.72;100.00
21361;BME280;10839;43.206;23.550;2023-03-01T12:19:21;97810.22;;;6.63;100.00
21361;BME280;10839;43.206;23.550;2023-03-01T12:30:28;97788.53;;;6.66;100.00
21361;BME280;10839;43.206;23.550;2023-03-01T12:35:36;97793.81;;;7.26;100.00
21361;BME280;10839;43.206;23.550;2023-03-01T12:38:08;97781.84;;;6.87;100.00
21361;BME280;10839;43.206;23.550;2023-03-01T12:45:54;97788.47;;;6.75;100.00
21361;BME280;10839;43.206;23.550;2023-03-01T12:51:05;97780.91;;;6.96;100.00
21361;BME280;10839;43.206;23.550;2023-03-01T12:53:35;97788.66;;;6.82;100.00
21361;BME280;10839;43.206;23.550;2023-03-01T12:56:11;97785.31;;;6.80;100.00
21361;BME280;10839;43.206;23.550;2023-03-01T13:11:53;97777.22;;;6.97;100.00
21361;BME280;10839;43.206;23.550;2023-03-01T13:16:52;97771.66;;;6.65;100.00
21361;BME280;10839;43.206;23.550;2023-03-01T13:19:21;97779.06;;;6.71;100.00
21361;BME280;10839;43.206;23.550;2023-03-01T13:21:50;97768.41;;;6.79;100.00
21361;BME280;10839;43.206;23.550;2023-03-01T13:24:27;97765.69;;;6.71;100.00
21361;BME280;10839;43.206;23.550;2023-03-01T13:29:53;97778.19;;;6.88;100.00
21361;BME280;10839;43.206;23.550;2023-03-01T13:32:28;97763.06;;;6.79;100.00
21361;BME280;10839;43.206;23.550;2023-03-01T13:35:01;97769.78;;;6.83;100.00
21361;BME280;10839;43.206;23.550;2023-03-01T13:37:31;97754.47;;;6.93;100.00
21361;BME280;10839;43.206;23.550;2023-03-01T13:40:00;97760.06;;;6.82;100.00
21361;BME280;10839;43.206;23.550;2023-03-01T13:42:42;97760.88;;;6.75;100.00
21361;BME280;10839;43.206;23.550;2023-03-01T13:45:31;97754.34;;;6.77;100.00
21361;BME280;10839;43.206;23.550;2023-03-01T13:48:03;97758.13;;;6.92;100.00
21361;BME280;10839;43.206;23.550;2023-03-01T13:50:43;97752.03;;;6.82;100.00
21361;BME280;10839;43.206;23.550;2023-03-01T13:53:16;97750.06;;;6.84;100.00
21361;BME280;10839;43.206;23.550;2023-03-01T14:00:41;97744.59;;;6.94;100.00
21361;BME280;10839;43.206;23.550;2023-03-01T14:03:14;97746.28;;;6.69;100.00
21361;BME280;10839;43.206;23.550;2023-03-01T14:05:44;97747.28;;;6.68;100.00
21361;BME280;10839;43.206;23.550;2023-03-01T14:08:26;97743.03;;;6.83;100.00
21361;BME280;10839;43.206;23.550;2023-03-01T14:16:45;97744.03;;;6.82;100.00
21361;BME280;10839;43.206;23.550;2023-03-01T14:19:23;97746.16;;;6.53;100.00
21361;BME280;10839;43.206;23.550;2023-03-01T14:22:22;97751.50;;;6.53;100.00
21361;BME280;10839;43.206;23.550;2023-03-01T14:25:05;97751.38;;;6.80;100.00
21361;BME280;10839;43.206;23.550;2023-03-01T14:27:39;97750.81;;;6.51;100.00
21361;BME280;10839;43.206;23.550;2023-03-01T14:30:24;97738.19;;;6.61;100.00
21361;BME280;10839;43.206;23.550;2023-03-01T14:32:57;97738.09;;;6.96;100.00
21361;BME280;10839;43.206;23.550;2023-03-01T14:35:31;97735.25;;;6.72;100.00
21361;BME280;10839;43.206;23.550;2023-03-01T14:37:58;97733.88;;;6.60;100.00
21361;BME280;10839;43.206;23.550;2023-03-01T14:40:31;97732.66;;;6.80;100.00
21361;BME280;10839;43.206;23.550;2023-03-01T14:42:59;97729.69;;;6.66;100.00
21361;BME280;10839;43.206;23.550;2023-03-01T14:45:28;97726.00;;;6.41;100.00
21361;BME280;10839;43.206;23.550;2023-03-01T14:47:59;97734.41;;;6.97;100.00
21361;BME280;10839;43.206;23.550;2023-03-01T14:50:29;97731.59;;;6.73;100.00
21361;BME280;10839;43.206;23.550;2023-03-01T14:53:04;97728.31;;;6.36;100.00